Time;durP1;ratioP1;P1;durP2;ratioP2;P2;SDS_P1;SDS_P2;PMS_P1;PMS_P2;Temp;Humidity;BMP_temperature;BMP_pressure;BME280_temperature;BME280_humidity;BME280_pressure;Samples;Min_cycle;Max_cycle;Signal;HPM_P1;HPM_P2
2022/06/14 00:00:59;;;;;;;3.03;1.80;;;20.90;59.60;;;;;;10410880;28;20037;-59
2022/06/14 00:06:11;;;;;;;3.50;1.95;;;20.90;59.70;;;;;;10410895;28;20477;-58
2022/06/14 00:11:22;;;;;;;2.75;1.38;;;20.90;59.60;;;;;;10410672;28;20131;-58
2022/06/14 00:16:24;;;;;;;2.78;1.33;;;20.90;59.70;;;;;;10411736;28;20034;-58
2022/06/14 00:21:25;;;;;;;3.97;1.80;;;20.90;59.60;;;;;;10410568;28;20508;-59
2022/06/14 00:26:26;;;;;;;4.68;1.60;;;20.90;59.50;;;;;;10411674;28;20037;-58
2022/06/14 00:31:29;;;;;;;2.13;1.60;;;20.90;59.50;;;;;;10417114;28;20029;-58
2022/06/14 00:36:34;;;;;;;2.95;1.98;;;20.90;59.50;;;;;;10418311;28;20049;-59
2022/06/14 00:41:45;;;;;;;2.13;1.67;;;20.80;59.50;;;;;;10412478;28;20068;-58
2022/06/14 00:47:02;;;;;;;2.53;1.40;;;20.80;59.40;;;;;;10427832;28;20084;-59
2022/06/14 00:52:17;;;;;;;1.77;1.08;;;20.80;59.40;;;;;;10425947;28;20026;-58
2022/06/14 00:57:38;;;;;;;3.05;1.48;;;20.80;59.30;;;;;;10416996;28;20064;-58
2022/06/14 01:02:46;;;;;;;2.85;1.20;;;20.80;59.30;;;;;;10416814;28;20033;-59
2022/06/14 01:07:52;;;;;;;2.25;1.65;;;20.80;59.30;;;;;;10416329;28;20037;-58
2022/06/14 01:13:00;;;;;;;2.80;1.48;;;20.80;59.10;;;;;;10410780;28;20033;-58
2022/06/14 01:18:19;;;;;;;3.15;1.30;;;20.80;59.20;;;;;;10417281;28;20120;-58
2022/06/14 01:23:21;;;;;;;2.97;1.50;;;20.80;59.20;;;;;;10417078;28;20037;-58
2022/06/14 01:28:25;;;;;;;2.85;1.35;;;20.80;59.90;;;;;;10415670;28;20156;-58
2022/06/14 01:33:34;;;;;;;2.10;1.40;;;20.70;59.20;;;;;;10415233;28;20138;-58
2022/06/14 01:38:35;;;;;;;3.97;1.42;;;20.70;59.10;;;;;;10415209;28;20540;-58
2022/06/14 01:44:03;;;;;;;2.10;1.20;;;20.70;59.10;;;;;;10415020;28;20055;-58
2022/06/14 01:55:24;;;;;;;2.85;1.35;;;20.70;58.90;;;;;;10416594;28;20501;-58
2022/06/14 02:00:39;;;;;;;3.05;1.40;;;20.70;59.00;;;;;;10415481;28;20025;-58
2022/06/14 02:05:50;;;;;;;2.40;1.50;;;20.70;59.00;;;;;;10414203;28;20041;-58
2022/06/14 02:11:03;;;;;;;2.25;1.15;;;20.60;59.00;;;;;;10414435;28;20417;-58
2022/06/14 02:16:14;;;;;;;2.33;1.52;;;20.60;58.90;;;;;;10414275;28;20048;-58
2022/06/14 02:21:33;;;;;;;2.35;1.50;;;20.60;59.00;;;;;;10413780;28;20029;-58
2022/06/14 02:26:37;;;;;;;;;;;20.60;58.80;;;;;;10414041;28;20478;-58
2022/06/14 02:31:49;;;;;;;2.83;1.63;;;20.60;58.60;;;;;;10397172;28;19916;-58
2022/06/14 02:37:23;;;;;;;2.67;1.80;;;20.60;58.60;;;;;;10412765;28;20065;-58
2022/06/14 02:42:42;;;;;;;2.50;1.45;;;20.60;58.50;;;;;;10412988;28;20799;-59
2022/06/14 02:48:06;;;;;;;3.35;1.13;;;20.60;58.50;;;;;;10414408;28;20104;-59
2022/06/14 02:53:22;;;;;;;3.15;1.67;;;20.50;58.50;;;;;;10418833;28;20033;-58
2022/06/14 02:58:40;;;;;;;2.53;1.42;;;20.50;58.50;;;;;;10412413;28;20528;-58
2022/06/14 03:03:47;;;;;;;3.80;1.55;;;20.50;58.40;;;;;;10412124;28;20033;-58
2022/06/14 03:09:15;;;;;;;2.83;1.67;;;20.50;58.30;;;;;;10412036;28;20029;-58
2022/06/14 03:14:35;;;;;;;2.88;1.10;;;20.50;58.30;;;;;;10411623;28;20048;-58
2022/06/14 03:19:57;;;;;;;3.58;1.60;;;20.50;58.10;;;;;;10409390;28;20060;-59
2022/06/14 03:25:44;;;;;;;3.03;1.20;;;20.50;58.00;;;;;;10412486;28;20037;-58
2022/06/14 03:30:54;;;;;;;2.10;1.15;;;20.50;58.10;;;;;;10401548;28;20112;-58
2022/06/14 03:35:55;;;;;;;2.55;1.60;;;20.50;58.10;;;;;;10402234;28;20049;-58
2022/06/14 03:40:56;;;;;;;1.80;1.23;;;20.40;58.00;;;;;;10411574;28;20057;-58
2022/06/14 03:46:25;;;;;;;1.80;1.10;;;20.40;58.00;;;;;;10423324;28;20034;-58
2022/06/14 03:51:40;;;;;;;2.03;1.67;;;20.40;57.90;;;;;;10422653;28;20049;-58
2022/06/14 03:57:04;;;;;;;2.53;1.30;;;20.40;57.90;;;;;;10412466;28;20476;-58
2022/06/14 04:02:53;;;;;;;2.03;1.65;;;20.40;57.90;;;;;;10412124;28;20034;-58
2022/06/14 04:08:22;;;;;;;1.65;1.10;;;20.40;57.80;;;;;;10413492;28;20037;-58
2022/06/14 04:13:34;;;;;;;3.30;1.00;;;20.40;57.80;;;;;;10420479;28;20037;-58
2022/06/14 04:19:11;;;;;;;2.22;1.20;;;20.40;57.80;;;;;;10419854;28;20036;-58
2022/06/14 04:24:52;;;;;;;1.98;1.17;;;20.30;57.80;;;;;;10398606;28;20490;-59
2022/06/14 04:30:23;;;;;;;3.63;2.05;;;20.30;57.80;;;;;;10402764;28;20033;-58
2022/06/14 04:35:45;;;;;;;2.17;1.52;;;20.30;57.80;;;;;;10418868;28;20543;-58
2022/06/14 04:41:21;;;;;;;2.08;1.20;;;20.30;57.80;;;;;;10419114;28;20045;-59
2022/06/14 04:46:52;;;;;;;1.55;0.93;;;20.30;57.80;;;;;;10409741;28;20104;-58
2022/06/14 04:52:13;;;;;;;1.67;1.02;;;20.30;57.80;;;;;;10424293;28;20029;-58
2022/06/14 04:57:30;;;;;;;3.20;1.40;;;20.30;58.20;;;;;;10416624;28;20108;-57
2022/06/14 05:02:38;;;;;;;4.13;1.45;;;20.30;58.50;;;;;;10416944;28;20040;-57
2022/06/14 05:08:08;;;;;;;6.05;1.88;;;20.40;59.20;;;;;;10416453;28;20373;-57
2022/06/14 05:13:25;;;;;;;;;;;20.40;59.40;;;;;;10418150;28;20637;-57
2022/06/14 05:18:45;;;;;;;7.57;1.75;;;20.40;59.90;;;;;;10431799;28;19912;-58
2022/06/14 05:23:53;;;;;;;24.73;3.00;;;20.40;60.30;;;;;;10410128;28;20386;-58
2022/06/14 05:29:31;;;;;;;8.15;2.25;;;20.40;59.70;;;;;;10415795;28;20485;-58
2022/06/14 05:34:52;;;;;;;7.00;2.20;;;20.40;60.40;;;;;;10415243;28;20382;-59
2022/06/14 05:40:01;;;;;;;9.88;2.13;;;20.40;60.00;;;;;;10416509;28;20037;-58
2022/06/14 05:45:03;;;;;;;13.27;2.85;;;20.40;59.90;;;;;;10415897;28;20038;-59
2022/06/14 05:50:16;;;;;;;10.18;2.20;;;20.40;60.20;;;;;;10424795;28;20029;-57
2022/06/14 05:55:32;;;;;;;7.30;2.25;;;20.40;60.20;;;;;;10413898;28;20067;-56
2022/06/14 06:00:59;;;;;;;3.25;1.52;;;20.40;60.40;;;;;;10414658;28;20544;-58
2022/06/14 06:06:17;;;;;;;6.18;2.00;;;20.40;60.50;;;;;;10413675;28;20029;-57
2022/06/14 06:11:36;;;;;;;7.35;2.72;;;20.40;60.80;;;;;;10411794;28;20405;-58
2022/06/14 06:22:20;;;;;;;6.75;2.25;;;20.40;60.60;;;;;;10414218;28;20045;-58
2022/06/14 06:27:47;;;;;;;6.63;2.28;;;20.40;60.50;;;;;;10413569;28;20034;-58
2022/06/14 06:32:48;;;;;;;6.07;2.00;;;20.40;60.50;;;;;;10410128;28;20053;-58
2022/06/14 06:38:38;;;;;;;5.70;1.60;;;20.40;60.40;;;;;;10412988;28;20108;-58
2022/06/14 06:43:40;;;;;;;4.55;1.65;;;20.30;60.40;;;;;;10394640;28;20049;-58
2022/06/14 06:48:48;;;;;;;6.55;1.70;;;20.30;60.50;;;;;;10410911;28;20034;-59
2022/06/14 06:54:02;;;;;;;1.80;1.20;;;20.40;60.70;;;;;;10411387;28;20382;-59
2022/06/14 06:59:21;;;;;;;5.07;1.73;;;20.40;60.50;;;;;;10409896;28;20030;-58
2022/06/14 07:10:00;;;;;;;6.50;2.00;;;20.40;60.30;;;;;;10411494;28;20025;-58
2022/06/14 07:15:10;;;;;;;5.05;1.90;;;20.30;60.40;;;;;;10411249;28;20033;-59
2022/06/14 07:20:34;;;;;;;4.00;1.73;;;20.40;60.70;;;;;;10405780;28;20033;-59
2022/06/14 07:25:57;;;;;;;9.27;2.15;;;20.40;60.60;;;;;;10409165;28;20565;-58
2022/06/14 07:31:08;;;;;;;4.90;1.95;;;20.40;60.60;;;;;;10411508;28;20086;-58
2022/06/14 07:36:48;;;;;;;3.33;1.30;;;20.40;60.70;;;;;;10409619;28;20049;-58
2022/06/14 07:42:24;;;;;;;5.95;2.17;;;20.40;60.70;;;;;;10416648;28;20470;-58
2022/06/14 07:48:02;;;;;;;5.82;1.95;;;20.40;60.60;;;;;;10390675;28;20039;-58
2022/06/14 07:53:20;;;;;;;4.47;1.38;;;20.40;60.80;;;;;;10412691;28;20451;-59
2022/06/14 07:58:37;;;;;;;5.38;1.20;;;20.30;60.70;;;;;;10417349;28;20066;-58
2022/06/14 08:03:59;;;;;;;1.95;1.13;;;20.40;60.80;;;;;;10417817;28;20045;-59
2022/06/14 08:09:06;;;;;;;2.70;1.23;;;20.30;60.80;;;;;;10418676;28;20033;-58
2022/06/14 08:14:15;;;;;;;1.65;0.95;;;20.30;60.70;;;;;;10419397;28;20509;-58
2022/06/14 08:19:26;;;;;;;1.67;1.25;;;20.30;60.80;;;;;;10418865;28;20037;-59
2022/06/14 08:24:35;;;;;;;1.52;0.98;;;20.30;60.90;;;;;;10418227;28;20037;-58
2022/06/14 08:29:57;;;;;;;4.43;1.58;;;20.30;60.90;;;;;;10417728;28;20029;-58
2022/06/14 08:35:24;;;;;;;4.53;1.33;;;20.30;60.90;;;;;;10406256;28;20085;-59
2022/06/14 08:40:46;;;;;;;2.17;1.13;;;20.30;60.90;;;;;;10416285;28;20096;-58
2022/06/14 08:46:00;;;;;;;4.40;1.40;;;20.30;61.00;;;;;;10416154;28;20038;-58
2022/06/14 08:51:17;;;;;;;3.20;1.10;;;20.30;61.20;;;;;;10418283;28;20039;-58
2022/06/14 08:57:09;;;;;;;4.40;1.30;;;20.30;61.30;;;;;;10414545;28;20053;-60
2022/06/14 09:02:46;;;;;;;3.00;1.30;;;20.30;61.40;;;;;;10403349;28;20390;-58
2022/06/14 09:08:08;;;;;;;2.88;1.45;;;20.30;61.10;;;;;;10414204;28;20056;-58
2022/06/14 09:13:43;;;;;;;3.05;1.63;;;20.30;60.90;;;;;;10414432;28;20034;-58
2022/06/14 09:18:53;;;;;;;3.78;1.70;;;20.40;60.80;;;;;;10410129;28;20044;-58
2022/06/14 09:24:47;;;;;;;2.47;1.10;;;20.40;60.80;;;;;;10409975;28;20482;-58
2022/06/14 09:30:27;;;;;;;3.05;1.55;;;20.40;60.30;;;;;;10412006;28;20116;-58
2022/06/14 09:36:04;;;;;;;2.50;1.57;;;20.40;59.10;;;;;;10378804;28;1052262;-58
2022/06/14 09:41:38;;;;;;;3.40;1.65;;;20.40;59.40;;;;;;10413635;28;20455;-58
2022/06/14 09:47:22;;;;;;;3.85;1.25;;;20.40;59.80;;;;;;10409382;28;20099;-58
2022/06/14 09:53:16;;;;;;;4.68;1.30;;;20.50;59.40;;;;;;10425605;28;20028;-58
2022/06/14 09:59:02;;;;;;;3.50;1.50;;;20.50;59.00;;;;;;10411590;28;20539;-59
2022/06/14 10:04:33;;;;;;;2.20;1.05;;;20.50;57.30;;;;;;10412678;28;20043;-57
2022/06/14 10:10:25;;;;;;;2.60;1.20;;;20.50;56.20;;;;;;10399993;28;20044;-57
2022/06/14 10:15:57;;;;;;;4.00;1.90;;;20.50;56.20;;;;;;10394742;28;20421;-57
2022/06/14 10:21:22;;;;;;;4.25;1.35;;;20.60;56.70;;;;;;10414086;28;20048;-57
2022/06/14 10:32:42;;;;;;;3.97;2.20;;;20.60;55.80;;;;;;10409487;28;20037;-57
2022/06/14 10:38:18;;;;;;;3.78;1.67;;;20.60;55.10;;;;;;10413577;28;20025;-57
2022/06/14 10:43:19;;;;;;;3.53;1.45;;;20.60;54.60;;;;;;10391770;28;20125;-57
2022/06/14 10:48:58;;;;;;;6.78;2.05;;;20.60;54.00;;;;;;10419112;28;20120;-57
2022/06/14 10:54:21;;;;;;;4.68;1.98;;;20.60;53.30;;;;;;10399272;28;20034;-57
2022/06/14 11:00:02;;;;;;;4.60;1.95;;;20.60;53.40;;;;;;10412510;28;20034;-58
2022/06/14 11:05:26;;;;;;;3.58;1.50;;;20.60;52.80;;;;;;10412319;28;20039;-57
2022/06/14 11:10:54;;;;;;;4.57;1.50;;;20.60;57.00;;;;;;10409552;28;20430;-57
2022/06/14 11:16:19;;;;;;;3.03;1.40;;;20.60;60.60;;;;;;10407362;28;20033;-58
2022/06/14 11:21:44;;;;;;;2.88;1.45;;;20.60;53.60;;;;;;10409132;28;20065;-57
2022/06/14 11:27:22;;;;;;;5.95;1.42;;;20.60;53.10;;;;;;10408449;28;20079;-56
2022/06/14 11:32:45;;;;;;;2.60;1.50;;;20.60;53.20;;;;;;10408080;28;20049;-56
2022/06/14 11:38:28;;;;;;;3.58;1.45;;;20.70;53.70;;;;;;10411537;28;20036;-57
2022/06/14 11:44:06;;;;;;;4.22;1.73;;;20.70;53.60;;;;;;10408735;28;20037;-57
2022/06/14 11:49:19;;;;;;;3.33;1.52;;;20.70;53.40;;;;;;10410600;28;20109;-57
2022/06/14 11:54:34;;;;;;;2.60;1.60;;;20.70;53.30;;;;;;10410839;28;20056;-58
2022/06/14 11:59:50;;;;;;;3.17;1.50;;;20.80;53.20;;;;;;10410713;28;20505;-59
2022/06/14 12:04:57;;;;;;;5.13;1.70;;;20.80;53.30;;;;;;10412136;28;20521;-59
2022/06/14 12:10:34;;;;;;;3.00;1.88;;;20.80;53.70;;;;;;10412164;28;20029;-58
2022/06/14 12:15:44;;;;;;;2.53;1.58;;;20.80;54.20;;;;;;10403795;28;20026;-58
2022/06/14 12:21:03;;;;;;;5.05;1.88;;;20.80;54.60;;;;;;10411766;28;20030;-58
2022/06/14 12:26:37;;;;;;;4.20;1.50;;;20.80;55.00;;;;;;10413444;28;20029;-59
2022/06/14 12:32:03;;;;;;;3.40;1.60;;;20.80;55.40;;;;;;10409682;28;20033;-58
2022/06/14 12:37:33;;;;;;;2.80;1.55;;;20.80;55.80;;;;;;10412649;28;20060;-58
2022/06/14 12:43:11;;;;;;;4.53;1.65;;;20.80;56.00;;;;;;10404643;28;20101;-58
2022/06/14 12:49:02;;;;;;;2.15;1.10;;;20.80;56.30;;;;;;10422719;28;20028;-58
2022/06/14 12:54:46;;;;;;;2.83;1.40;;;20.80;56.50;;;;;;10377802;28;20042;-58
2022/06/14 13:00:17;;;;;;;6.78;1.60;;;20.80;56.50;;;;;;10414107;28;20036;-58
2022/06/14 13:05:24;;;;;;;2.33;1.40;;;20.90;56.40;;;;;;10416536;28;20048;-58
2022/06/14 13:11:25;;;;;;;3.58;1.58;;;20.90;56.20;;;;;;10416619;28;20056;-58
2022/06/14 13:17:07;;;;;;;5.32;2.08;;;20.90;55.50;;;;;;10409003;28;20064;-58
2022/06/14 13:22:23;;;;;;;3.28;1.75;;;20.90;55.30;;;;;;10417593;28;20088;-58
2022/06/14 13:27:41;;;;;;;3.90;1.50;;;20.90;55.70;;;;;;10424605;28;20034;-58
2022/06/14 13:33:23;;;;;;;7.37;1.40;;;20.80;55.60;;;;;;10416229;28;20100;-58
2022/06/14 13:38:35;;;;;;;5.70;2.10;;;20.80;56.40;;;;;;10412160;28;20045;-58
2022/06/14 13:44:18;;;;;;;3.70;1.30;;;20.90;56.50;;;;;;10410215;28;20135;-58
2022/06/14 13:49:40;;;;;;;5.20;2.05;;;20.90;56.30;;;;;;10405562;28;20565;-59
2022/06/14 13:54:58;;;;;;;3.90;1.27;;;20.90;56.00;;;;;;10406976;28;20163;-58
2022/06/14 14:00:34;;;;;;;3.80;1.83;;;20.90;55.90;;;;;;10414866;28;20072;-58
2022/06/14 14:05:45;;;;;;;3.05;1.50;;;20.90;55.90;;;;;;10404539;28;20064;-58
2022/06/14 14:11:10;;;;;;;4.65;1.90;;;20.80;55.60;;;;;;10414139;28;20056;-58
2022/06/14 14:16:39;;;;;;;2.42;1.27;;;20.80;55.90;;;;;;10411127;28;20050;-59
2022/06/14 14:22:11;;;;;;;4.83;1.90;;;20.80;55.40;;;;;;10413772;28;20026;-59
2022/06/14 14:27:30;;;;;;;2.20;1.15;;;20.80;55.30;;;;;;10408163;28;20056;-58
2022/06/14 14:32:39;;;;;;;4.18;1.70;;;20.80;55.90;;;;;;10413350;28;20026;-57
2022/06/14 14:37:52;;;;;;;3.05;1.58;;;20.80;55.60;;;;;;10412693;28;20056;-58
2022/06/14 14:43:04;;;;;;;2.22;1.20;;;20.80;56.10;;;;;;10408300;28;20040;-57
2022/06/14 14:48:46;;;;;;;4.18;1.52;;;20.80;55.80;;;;;;10416862;28;20487;-58
2022/06/14 14:54:51;;;;;;;3.72;1.45;;;20.80;56.40;;;;;;10413709;28;20037;-57
2022/06/14 15:00:22;;;;;;;4.32;1.92;;;20.70;56.60;;;;;;10381279;28;20076;-58
2022/06/14 15:05:44;;;;;;;2.35;1.52;;;20.80;56.30;;;;;;10413003;28;20033;-58
2022/06/14 15:11:14;;;;;;;4.30;1.77;;;20.70;56.20;;;;;;10409241;28;20509;-58
2022/06/14 15:16:37;;;;;;;4.80;1.95;;;20.70;56.30;;;;;;10401397;28;20041;-57
2022/06/14 15:21:51;;;;;;;9.43;6.07;;;20.70;55.70;;;;;;10411509;28;20075;-58
2022/06/14 15:26:59;;;;;;;5.60;2.53;;;20.80;59.20;;;;;;10411646;28;20386;-58
2022/06/14 15:32:27;;;;;;;22.03;7.43;;;20.80;56.90;;;;;;10413274;28;20108;-58
2022/06/14 15:37:30;;;;;;;13.38;6.85;;;20.90;58.00;;;;;;10402459;28;20565;-57
2022/06/14 15:42:37;;;;;;;8.13;4.25;;;20.90;60.00;;;;;;10409316;28;20037;-58
2022/06/14 15:47:40;;;;;;;7.28;3.10;;;20.90;58.70;;;;;;10412528;28;20025;-58
2022/06/14 15:52:47;;;;;;;6.63;2.13;;;20.80;58.80;;;;;;10409943;28;20025;-58
2022/06/14 15:58:05;;;;;;;6.07;2.75;;;20.80;58.10;;;;;;10410659;28;20025;-57
2022/06/14 16:03:14;;;;;;;5.97;2.22;;;20.80;58.50;;;;;;10419006;28;20037;-57
2022/06/14 16:08:25;;;;;;;;;;;20.80;57.20;;;;;;10420170;28;20021;-59
2022/06/14 16:13:30;;;;;;;37.50;28.05;;;20.80;58.40;;;;;;10434894;28;19913;-58
2022/06/14 16:18:41;;;;;;;9.88;4.72;;;20.80;57.90;;;;;;10418448;28;20383;-59
2022/06/14 16:23:45;;;;;;;19.05;15.27;;;20.80;57.10;;;;;;10419120;28;20041;-58
2022/06/14 16:28:54;;;;;;;13.45;9.35;;;20.80;57.40;;;;;;10419442;28;20048;-58
2022/06/14 16:34:04;;;;;;;12.90;7.80;;;20.80;57.50;;;;;;10419123;28;20152;-59
2022/06/14 16:39:31;;;;;;;9.75;7.18;;;20.80;57.50;;;;;;10418846;28;20048;-58
2022/06/14 16:45:03;;;;;;;8.85;6.13;;;20.80;57.50;;;;;;10409859;28;20099;-59
2022/06/14 16:50:25;;;;;;;7.72;4.30;;;20.80;57.00;;;;;;10415802;28;20433;-58
2022/06/14 16:55:58;;;;;;;7.22;4.50;;;20.80;56.70;;;;;;10417005;28;20587;-54
2022/06/14 17:01:25;;;;;;;10.77;3.90;;;20.90;57.30;;;;;;10417802;28;20052;-58
2022/06/14 17:07:01;;;;;;;6.90;3.53;;;20.90;57.40;;;;;;10417755;28;20037;-58
2022/06/14 17:12:19;;;;;;;5.30;3.03;;;20.80;57.50;;;;;;10416525;28;20029;-58
2022/06/14 17:17:34;;;;;;;6.53;3.95;;;20.80;57.50;;;;;;10412461;28;20033;-57
2022/06/14 17:22:57;;;;;;;6.22;3.22;;;20.80;56.90;;;;;;10410816;28;20067;-57
2022/06/14 17:33:23;;;;;;;8.68;3.08;;;20.90;56.70;;;;;;10409826;28;20133;-57
2022/06/14 17:38:46;;;;;;;4.32;2.42;;;20.80;56.60;;;;;;10412955;28;20041;-57
2022/06/14 17:44:13;;;;;;;5.47;2.33;;;20.80;56.10;;;;;;10414219;28;20033;-58
2022/06/14 17:49:27;;;;;;;8.50;2.78;;;20.90;56.30;;;;;;10415292;28;20485;-58
2022/06/14 17:54:57;;;;;;;6.20;2.38;;;20.90;55.90;;;;;;10414625;28;20041;-58
2022/06/14 18:00:12;;;;;;;7.13;2.33;;;20.90;55.80;;;;;;10418391;28;20021;-58
2022/06/14 18:05:37;;;;;;;5.95;2.47;;;20.90;55.60;;;;;;10413396;28;20029;-58
2022/06/14 18:10:47;;;;;;;5.40;1.88;;;20.90;55.40;;;;;;10414863;28;20513;-58
2022/06/14 18:15:51;;;;;;;6.97;2.30;;;20.90;55.10;;;;;;10410219;28;20030;-58
2022/06/14 18:21:23;;;;;;;7.35;2.53;;;20.90;55.60;;;;;;10411239;28;20492;-58
2022/06/14 18:26:36;;;;;;;5.57;2.67;;;20.90;55.50;;;;;;10412114;28;20444;-58
2022/06/14 18:31:42;;;;;;;7.78;2.05;;;20.90;55.20;;;;;;10405780;28;20041;-58
2022/06/14 18:37:00;;;;;;;7.00;2.45;;;20.90;55.80;;;;;;10412133;28;20490;-59
2022/06/14 18:42:25;;;;;;;6.93;2.55;;;20.90;56.20;;;;;;10407745;28;20036;-58
2022/06/14 18:47:34;;;;;;;5.60;1.95;;;20.90;56.20;;;;;;10413538;28;20448;-59
2022/06/14 18:52:38;;;;;;;6.05;4.13;;;20.90;56.10;;;;;;10423114;28;20101;-59
2022/06/14 18:57:54;;;;;;;6.18;2.17;;;20.90;56.20;;;;;;10403543;28;20032;-59
2022/06/14 19:03:21;;;;;;;4.75;2.80;;;20.90;55.80;;;;;;10394564;28;20094;-59
2022/06/14 19:08:30;;;;;;;5.28;2.03;;;20.90;55.50;;;;;;10409952;28;20047;-58
2022/06/14 19:13:54;;;;;;;4.38;1.70;;;21.00;55.70;;;;;;10409266;28;20037;-59
2022/06/14 19:19:13;;;;;;;4.53;2.17;;;21.00;55.80;;;;;;10410457;28;20041;-59
2022/06/14 19:24:30;;;;;;;2.85;1.45;;;20.90;55.70;;;;;;10405518;28;20048;-59
2022/06/14 19:29:46;;;;;;;3.30;1.70;;;20.90;55.40;;;;;;10412426;28;20029;-59
2022/06/14 19:34:57;;;;;;;3.95;1.52;;;20.90;55.10;;;;;;10411161;28;20045;-59
2022/06/14 19:40:01;;;;;;;4.13;2.25;;;20.90;54.90;;;;;;10417398;28;20143;-59
2022/06/14 19:45:35;;;;;;;4.50;1.83;;;20.90;55.10;;;;;;10419160;28;20040;-58
2022/06/14 19:50:51;;;;;;;4.97;1.98;;;20.90;55.30;;;;;;10421531;28;20033;-58
2022/06/14 19:55:59;;;;;;;2.50;1.40;;;20.90;55.50;;;;;;10413611;28;20517;-58
2022/06/14 20:01:05;;;;;;;4.97;1.80;;;20.90;55.60;;;;;;10416027;28;20037;-58
2022/06/14 20:06:33;;;;;;;2.58;1.58;;;20.90;55.90;;;;;;10416096;28;20105;-58
2022/06/14 20:11:43;;;;;;;1.90;1.20;;;20.90;56.10;;;;;;10418160;28;20032;-58
2022/06/14 20:17:14;;;;;;;4.10;1.40;;;20.90;56.20;;;;;;10418347;28;20030;-59
2022/06/14 20:22:15;;;;;;;1.63;1.30;;;20.90;56.20;;;;;;10418727;28;20033;-58
2022/06/14 20:27:18;;;;;;;4.68;1.88;;;20.90;56.20;;;;;;10419531;28;20401;-59
2022/06/14 20:32:18;;;;;;;2.58;1.10;;;20.90;56.40;;;;;;10417901;28;20474;-58
2022/06/14 20:37:20;;;;;;;1.95;1.20;;;20.90;56.80;;;;;;10419505;28;20033;-59
2022/06/14 20:42:24;;;;;;;2.22;1.17;;;20.90;56.70;;;;;;10417690;28;20033;-58
2022/06/14 20:47:25;;;;;;;1.77;1.10;;;20.90;56.70;;;;;;10417023;28;20021;-58
2022/06/14 20:52:27;;;;;;;1.83;1.00;;;20.90;56.80;;;;;;10421695;28;20065;-58
2022/06/14 20:57:41;;;;;;;1.58;1.20;;;20.90;56.90;;;;;;10417410;28;20030;-58
2022/06/14 21:02:43;;;;;;;2.08;1.25;;;20.90;56.90;;;;;;10417106;28;20036;-58
2022/06/14 21:07:44;;;;;;;3.20;1.60;;;20.90;57.00;;;;;;10417090;28;20033;-58
2022/06/14 21:12:45;;;;;;;3.17;1.30;;;20.90;57.10;;;;;;10416675;28;20030;-58
2022/06/14 21:17:48;;;;;;;2.33;1.50;;;20.90;57.20;;;;;;10417537;28;20041;-58
2022/06/14 21:22:52;;;;;;;3.53;1.50;;;20.90;57.30;;;;;;10417617;28;20068;-58
2022/06/14 21:27:54;;;;;;;2.67;1.23;;;20.90;57.40;;;;;;10417370;28;20021;-58
2022/06/14 21:32:55;;;;;;;2.97;1.35;;;20.90;57.50;;;;;;10415404;28;20754;-58
2022/06/14 21:38:07;;;;;;;2.35;1.25;;;20.90;57.50;;;;;;10416885;28;20036;-58
2022/06/14 21:43:22;;;;;;;2.20;1.20;;;20.90;57.50;;;;;;10403721;28;20721;-58
2022/06/14 21:48:26;;;;;;;1.25;1.02;;;20.90;57.50;;;;;;10418120;28;20036;-58
2022/06/14 21:53:30;;;;;;;2.10;1.38;;;20.90;57.60;;;;;;10414819;28;20037;-58
2022/06/14 21:58:36;;;;;;;2.45;1.50;;;20.90;57.60;;;;;;10414060;28;20030;-58
2022/06/14 22:03:52;;;;;;;2.20;1.38;;;20.90;57.50;;;;;;10414475;28;20075;-58
2022/06/14 22:08:53;;;;;;;3.80;1.48;;;20.90;57.50;;;;;;10413997;28;20482;-58
2022/06/14 22:13:54;;;;;;;1.75;1.25;;;20.90;57.70;;;;;;10415361;28;20034;-59
2022/06/14 22:18:55;;;;;;;1.88;1.15;;;20.90;57.70;;;;;;10413354;28;20029;-58
2022/06/14 22:29:16;;;;;;;;;;;20.90;57.80;;;;;;10414727;28;20034;-59
2022/06/14 22:34:24;;;;;;;2.10;1.50;;;20.90;57.60;;;;;;10414433;28;20433;-58
2022/06/14 22:39:25;;;;;;;1.90;1.33;;;20.80;57.80;;;;;;10412903;28;20029;-59
2022/06/14 22:44:25;;;;;;;3.53;1.45;;;20.80;57.90;;;;;;10413988;28;20037;-59
2022/06/14 22:49:27;;;;;;;1.70;1.45;;;20.80;57.90;;;;;;10417087;28;20072;-58
2022/06/14 22:54:27;;;;;;;2.35;1.30;;;20.80;57.90;;;;;;10410303;28;20099;-59
2022/06/14 22:59:28;;;;;;;4.30;1.20;;;20.80;57.90;;;;;;10413963;28;20443;-58
2022/06/14 23:04:30;;;;;;;2.20;1.38;;;20.80;58.00;;;;;;10413376;28;20120;-58
2022/06/14 23:09:31;;;;;;;1.85;1.20;;;20.80;57.80;;;;;;10412248;28;20041;-58
2022/06/14 23:14:31;;;;;;;2.05;1.33;;;20.80;58.10;;;;;;10412170;28;20523;-58
2022/06/14 23:19:32;;;;;;;2.22;1.40;;;20.80;57.80;;;;;;10412016;28;20113;-58
2022/06/14 23:24:33;;;;;;;2.65;1.30;;;20.80;57.80;;;;;;10413314;28;20069;-58
2022/06/14 23:29:33;;;;;;;4.32;1.70;;;20.80;57.90;;;;;;10412772;28;20103;-58
2022/06/14 23:34:34;;;;;;;1.85;1.30;;;20.80;57.90;;;;;;10412604;28;20085;-58
2022/06/14 23:39:35;;;;;;;2.75;1.30;;;20.80;58.00;;;;;;10412887;28;20556;-58
2022/06/14 23:44:35;;;;;;;1.70;1.00;;;20.80;58.00;;;;;;10399395;28;20071;-58
2022/06/14 23:49:36;;;;;;;2.80;1.52;;;20.80;58.00;;;;;;10415615;28;20048;-59
2022/06/14 23:54:37;;;;;;;3.55;1.20;;;20.80;58.10;;;;;;10412466;28;20033;-58
2022/06/14 23:59:40;;;;;;;3.30;1.77;;;20.80;58.10;;;;;;10412374;28;20061;-58
